Time;durP1;ratioP1;P1;durP2;ratioP2;P2;SDS_P1;SDS_P2;PMS_P1;PMS_P2;Temp;Humidity;BMP_temperature;BMP_pressure;BME280_temperature;BME280_humidity;BME280_pressure;Samples;Min_cycle;Max_cycle;Signal;HPM_P1;HPM_P2
2022/01/06 00:01:43;;;;;;;7.80;2.90;;;1.40;99.90;;;;;;4389885;28;659081;-71
2022/01/06 00:04:30;;;;;;;7.77;3.47;;;1.40;99.90;;;;;;4390055;28;657886;-71
2022/01/06 00:07:18;;;;;;;12.33;3.20;;;1.40;99.90;;;;;;4409509;28;659253;-70
2022/01/06 00:10:08;;;;;;;9.27;3.57;;;1.40;99.90;;;;;;4388883;28;658636;-72
2022/01/06 00:13:07;;;;;;;8.53;3.23;;;1.40;99.90;;;;;;4393224;28;657688;-78
2022/01/06 00:16:23;;;;;;;10.20;3.47;;;1.40;99.90;;;;;;4407264;28;658239;-79
2022/01/06 00:25:21;;;;;;;8.80;2.73;;;1.50;99.90;;;;;;4375738;28;658962;-79
2022/01/06 00:28:08;;;;;;;8.50;3.60;;;1.40;99.90;;;;;;4409506;28;657838;-78
2022/01/06 00:30:57;;;;;;;9.20;3.87;;;1.40;99.90;;;;;;4391403;28;657768;-79
2022/01/06 00:33:45;;;;;;;8.27;3.17;;;1.40;99.90;;;;;;4410460;28;657077;-80
2022/01/06 00:36:33;;;;;;;9.27;2.73;;;1.40;99.90;;;;;;4386838;28;658257;-77
2022/01/06 00:39:26;;;;;;;12.10;3.80;;;1.40;99.90;;;;;;4383725;28;658258;-77
2022/01/06 00:42:14;;;;;;;9.77;2.87;;;1.40;99.90;;;;;;4375936;28;658758;-78
2022/01/06 00:45:02;;;;;;;12.63;3.00;;;1.40;99.90;;;;;;4379350;28;657786;-79
2022/01/06 00:47:51;;;;;;;9.60;3.87;;;1.40;99.90;;;;;;4388770;28;658356;-77
2022/01/06 00:50:39;;;;;;;10.17;3.50;;;1.40;99.90;;;;;;4386777;28;657870;-78
2022/01/06 00:53:28;;;;;;;6.03;3.20;;;1.40;99.90;;;;;;4353981;28;658771;-79
2022/01/06 00:56:16;;;;;;;5.27;2.23;;;1.40;99.90;;;;;;4370783;28;657709;-72
2022/01/06 00:59:03;;;;;;;9.90;3.63;;;1.40;99.90;;;;;;4391142;28;658600;-77
2022/01/06 01:01:51;;;;;;;12.93;4.23;;;1.40;99.90;;;;;;4365762;28;657349;-78
2022/01/06 01:04:40;;;;;;;10.90;3.30;;;1.40;99.90;;;;;;4400382;28;658297;-78
2022/01/06 01:07:28;;;;;;;8.63;3.77;;;1.40;99.90;;;;;;4323734;28;660451;-78
2022/01/06 01:10:16;;;;;;;10.37;3.60;;;1.30;99.90;;;;;;4395458;28;658866;-79
2022/01/06 01:13:03;;;;;;;6.47;2.57;;;1.40;99.90;;;;;;4401061;28;659755;-75
2022/01/06 01:15:54;;;;;;;11.23;4.07;;;1.40;99.90;;;;;;4359185;28;657564;-77
2022/01/06 01:18:45;;;;;;;7.07;2.70;;;1.40;99.90;;;;;;4372937;28;659393;-78
2022/01/06 01:21:35;;;;;;;7.77;2.07;;;1.30;99.90;;;;;;4371325;28;658387;-77
2022/01/06 01:24:23;;;;;;;11.07;3.43;;;1.30;99.90;;;;;;4344540;28;658121;-77
2022/01/06 01:27:11;;;;;;;12.20;3.30;;;1.30;99.90;;;;;;4343739;28;658702;-78
2022/01/06 01:30:03;;;;;;;5.73;2.40;;;1.30;99.90;;;;;;4390010;28;659088;-77
2022/01/06 01:32:54;;;;;;;10.63;3.27;;;1.30;99.90;;;;;;4363011;28;657953;-79
2022/01/06 01:35:42;;;;;;;9.93;2.93;;;1.30;99.90;;;;;;4387046;28;658746;-77
2022/01/06 01:38:36;;;;;;;7.80;3.30;;;1.30;99.90;;;;;;4372364;28;657899;-78
2022/01/06 01:41:24;;;;;;;7.10;3.17;;;1.20;99.90;;;;;;4350144;28;658548;-79
2022/01/06 01:44:15;;;;;;;10.70;3.20;;;1.20;99.90;;;;;;4363374;28;658247;-78
2022/01/06 01:47:13;;;;;;;7.70;3.20;;;1.20;99.90;;;;;;4363222;28;658606;-77
2022/01/06 01:50:10;;;;;;;9.10;3.10;;;1.30;99.90;;;;;;4363792;28;657787;-78
2022/01/06 01:52:59;;;;;;;10.32;2.60;;;1.20;99.90;;;;;;4381479;28;657466;-77
2022/01/06 01:55:48;;;;;;;7.33;3.20;;;1.20;99.90;;;;;;4385165;28;658972;-77
2022/01/06 01:58:44;;;;;;;7.30;3.00;;;1.20;99.90;;;;;;4357759;28;657759;-77
2022/01/06 02:01:32;;;;;;;6.63;2.87;;;1.20;99.90;;;;;;4385388;28;657596;-76
2022/01/06 02:04:20;;;;;;;10.83;2.90;;;1.20;99.90;;;;;;4348231;28;657865;-78
2022/01/06 02:07:10;;;;;;;7.93;3.03;;;1.20;99.90;;;;;;4358784;28;659201;-78
2022/01/06 02:09:58;;;;;;;8.10;2.87;;;1.20;99.90;;;;;;4380440;28;658019;-77
2022/01/06 02:12:49;;;;;;;9.67;3.57;;;1.30;99.90;;;;;;4355955;28;657897;-78
2022/01/06 02:15:37;;;;;;;6.78;2.65;;;1.30;99.90;;;;;;4366548;28;657545;-77
2022/01/06 02:18:25;;;;;;;7.93;2.47;;;1.30;99.90;;;;;;4374998;28;657468;-78
2022/01/06 02:21:15;;;;;;;7.83;3.00;;;1.30;99.90;;;;;;4389569;28;657811;-77
2022/01/06 02:24:03;;;;;;;6.17;2.47;;;1.30;99.90;;;;;;4370893;28;658170;-78
2022/01/06 02:26:58;;;;;;;13.07;3.13;;;1.40;99.90;;;;;;4389223;28;658073;-77
2022/01/06 02:29:46;;;;;;;4.63;1.83;;;1.30;99.90;;;;;;4347254;28;658524;-77
2022/01/06 02:32:34;;;;;;;11.27;2.93;;;1.30;99.90;;;;;;4412205;28;657848;-78
2022/01/06 02:35:24;;;;;;;9.77;3.23;;;1.40;99.90;;;;;;4318537;28;659008;-78
2022/01/06 02:38:17;;;;;;;7.97;3.40;;;1.40;99.90;;;;;;4324284;28;658297;-77
2022/01/06 02:41:06;;;;;;;9.63;3.00;;;1.40;99.90;;;;;;4368885;28;658291;-78
2022/01/06 02:43:55;;;;;;;8.50;3.10;;;1.40;99.90;;;;;;4376414;28;657880;-78
2022/01/06 02:46:44;;;;;;;7.45;3.03;;;1.40;99.90;;;;;;4361216;28;658020;-78
2022/01/06 02:49:31;;;;;;;7.13;2.60;;;1.40;99.90;;;;;;4362329;28;658355;-75
2022/01/06 02:52:19;;;;;;;12.17;4.03;;;1.50;99.90;;;;;;4381361;28;657419;-76
2022/01/06 02:55:12;;;;;;;9.53;3.20;;;1.50;99.90;;;;;;4377389;28;658910;-76
2022/01/06 02:57:59;;;;;;;7.43;2.90;;;1.50;99.90;;;;;;4371749;28;657199;-78
2022/01/06 03:00:47;;;;;;;5.03;1.60;;;1.50;99.90;;;;;;4389825;28;658232;-74
2022/01/06 03:03:35;;;;;;;7.13;2.60;;;1.50;99.90;;;;;;4351494;28;657930;-78
2022/01/06 03:06:24;;;;;;;8.40;2.63;;;1.50;99.90;;;;;;4329068;28;657872;-77
2022/01/06 03:09:12;;;;;;;12.27;3.00;;;1.50;99.90;;;;;;4336333;28;657313;-77
2022/01/06 03:12:03;;;;;;;7.00;2.77;;;1.50;99.90;;;;;;4389233;28;657898;-78
2022/01/06 03:14:50;;;;;;;8.30;2.70;;;1.50;99.90;;;;;;4354136;28;657265;-77
2022/01/06 03:17:46;;;;;;;7.27;2.70;;;1.50;99.90;;;;;;4349967;28;658197;-77
2022/01/06 03:20:34;;;;;;;5.93;2.60;;;1.50;99.90;;;;;;4340252;28;658226;-77
2022/01/06 03:23:22;;;;;;;6.13;2.77;;;1.50;99.90;;;;;;4352929;28;657782;-78
2022/01/06 03:26:09;;;;;;;5.83;3.00;;;1.50;99.90;;;;;;4373011;28;657739;-77
2022/01/06 03:28:58;;;;;;;10.37;3.40;;;1.50;99.90;;;;;;4351228;28;657743;-77
2022/01/06 03:31:49;;;;;;;10.60;3.00;;;1.50;99.90;;;;;;4344361;28;659471;-77
2022/01/06 03:34:37;;;;;;;6.33;2.77;;;1.50;99.90;;;;;;4327092;28;658789;-77
2022/01/06 03:37:27;;;;;;;6.33;2.50;;;1.60;99.90;;;;;;4347716;28;657430;-77
2022/01/06 03:40:14;;;;;;;9.00;3.27;;;1.60;99.90;;;;;;4350679;28;658289;-76
2022/01/06 03:43:02;;;;;;;13.27;3.40;;;1.60;99.90;;;;;;4344744;28;658239;-75
2022/01/06 03:45:51;;;;;;;9.40;3.03;;;1.60;99.90;;;;;;4343017;28;658835;-75
2022/01/06 03:48:38;;;;;;;7.80;2.93;;;1.60;99.90;;;;;;4305942;28;657648;-77
2022/01/06 03:51:26;;;;;;;7.53;2.70;;;1.60;99.90;;;;;;4336649;28;657893;-75
2022/01/06 03:54:13;;;;;;;9.93;3.00;;;1.60;99.90;;;;;;4416869;28;657806;-75
2022/01/06 03:57:01;;;;;;;9.57;3.10;;;1.60;99.90;;;;;;4383885;28;657869;-77
2022/01/06 03:59:48;;;;;;;6.53;2.83;;;1.70;99.90;;;;;;4341518;28;658232;-76
2022/01/06 04:02:38;;;;;;;9.63;3.07;;;1.60;99.90;;;;;;4321428;28;657748;-77
2022/01/06 04:05:26;;;;;;;10.47;2.90;;;1.50;99.90;;;;;;4375600;28;657741;-77
2022/01/06 04:08:15;;;;;;;6.30;3.03;;;1.60;99.90;;;;;;4366159;28;659220;-77
2022/01/06 04:11:03;;;;;;;8.40;2.93;;;1.60;99.90;;;;;;4295632;28;658480;-78
2022/01/06 04:13:51;;;;;;;8.80;2.60;;;1.70;99.90;;;;;;4338224;28;658185;-78
2022/01/06 04:16:40;;;;;;;7.57;2.63;;;1.70;99.90;;;;;;4359689;28;657843;-76
2022/01/06 04:19:29;;;;;;;6.90;2.37;;;1.70;99.90;;;;;;4320838;28;658737;-78
2022/01/06 04:22:18;;;;;;;9.07;3.03;;;1.70;99.90;;;;;;4347536;28;658394;-77
2022/01/06 04:25:06;;;;;;;6.43;2.25;;;1.70;99.90;;;;;;4362253;28;657900;-76
2022/01/06 04:27:55;;;;;;;10.37;2.50;;;1.70;99.90;;;;;;4306989;28;658434;-76
2022/01/06 04:30:42;;;;;;;7.23;2.10;;;1.70;99.90;;;;;;4312372;28;659331;-77
2022/01/06 04:33:30;;;;;;;4.97;2.40;;;1.70;99.90;;;;;;4328521;28;657578;-78
2022/01/06 04:36:20;;;;;;;4.67;1.67;;;1.80;99.90;;;;;;4314179;28;658414;-76
2022/01/06 04:39:08;;;;;;;7.70;2.03;;;1.80;99.90;;;;;;4344379;28;658972;-77
2022/01/06 04:42:00;;;;;;;6.00;2.00;;;1.80;99.90;;;;;;4342496;28;657825;-77
2022/01/06 04:44:55;;;;;;;3.27;1.73;;;1.80;99.90;;;;;;4382617;28;657710;-76
2022/01/06 04:47:46;;;;;;;5.28;2.00;;;1.80;99.90;;;;;;4330791;28;658000;-77
2022/01/06 04:50:34;;;;;;;3.33;2.00;;;1.80;99.90;;;;;;4346617;28;658163;-77
2022/01/06 04:53:23;;;;;;;7.37;2.57;;;1.90;99.90;;;;;;4381245;28;657518;-78
2022/01/06 04:56:10;;;;;;;4.17;2.23;;;1.80;99.90;;;;;;4340423;28;658055;-75
2022/01/06 04:58:58;;;;;;;6.07;2.53;;;1.80;99.90;;;;;;4371434;28;658394;-76
2022/01/06 05:01:46;;;;;;;6.97;2.92;;;1.80;99.90;;;;;;4371515;28;657993;-78
2022/01/06 05:04:33;;;;;;;7.17;2.70;;;1.80;99.90;;;;;;4397417;28;657880;-77
2022/01/06 05:07:24;;;;;;;6.83;2.33;;;1.80;99.90;;;;;;4311251;28;658442;-76
2022/01/06 05:10:13;;;;;;;6.23;2.30;;;1.90;99.90;;;;;;4308377;28;657729;-77
2022/01/06 05:13:01;;;;;;;6.20;3.03;;;1.90;99.90;;;;;;4344021;28;657775;-75
2022/01/06 05:15:49;;;;;;;7.80;2.63;;;1.90;99.90;;;;;;4365853;28;658430;-78
2022/01/06 05:18:36;;;;;;;5.20;2.07;;;1.90;99.90;;;;;;4335187;28;657463;-76
2022/01/06 05:21:28;;;;;;;9.32;3.28;;;1.80;99.90;;;;;;4351129;28;657710;-77
2022/01/06 05:24:17;;;;;;;4.93;2.22;;;1.90;99.90;;;;;;4322606;28;657912;-77
2022/01/06 05:27:09;;;;;;;5.35;2.25;;;1.80;99.90;;;;;;4343297;28;657427;-77
2022/01/06 05:29:58;;;;;;;9.50;2.60;;;1.80;99.90;;;;;;4325990;28;658310;-76
2022/01/06 05:32:46;;;;;;;7.47;2.67;;;1.80;99.90;;;;;;4318083;28;657981;-78
2022/01/06 05:35:34;;;;;;;5.07;2.47;;;1.90;99.90;;;;;;4315447;28;657665;-77
2022/01/06 05:38:22;;;;;;;9.30;2.63;;;1.90;99.90;;;;;;4357335;28;658522;-78
2022/01/06 05:41:10;;;;;;;6.97;2.90;;;1.90;99.90;;;;;;4372724;28;657482;-78
2022/01/06 05:43:59;;;;;;;6.85;1.83;;;1.80;99.90;;;;;;4312285;28;658607;-75
2022/01/06 05:46:51;;;;;;;5.97;2.33;;;1.90;99.90;;;;;;4325355;28;658095;-75
2022/01/06 05:49:38;;;;;;;8.13;2.63;;;1.90;99.90;;;;;;4361843;28;658725;-74
2022/01/06 05:52:27;;;;;;;7.60;3.23;;;1.90;99.90;;;;;;4385629;28;658077;-77
2022/01/06 05:55:15;;;;;;;10.55;3.35;;;1.80;99.90;;;;;;4373172;28;657709;-77
2022/01/06 05:58:02;;;;;;;6.07;2.30;;;1.80;99.90;;;;;;4373084;28;659501;-77
2022/01/06 06:00:52;;;;;;;9.23;2.55;;;1.80;99.90;;;;;;4389368;28;657497;-76
2022/01/06 06:03:40;;;;;;;10.37;2.93;;;1.90;99.90;;;;;;4337831;28;658127;-78
2022/01/06 06:06:28;;;;;;;6.80;2.33;;;1.80;99.90;;;;;;4370866;28;658985;-76
2022/01/06 06:09:15;;;;;;;7.53;3.13;;;1.90;99.90;;;;;;4399923;28;658052;-76
2022/01/06 06:12:08;;;;;;;9.37;2.40;;;1.90;99.90;;;;;;4396291;28;657946;-77
2022/01/06 06:14:58;;;;;;;8.67;2.90;;;1.80;99.90;;;;;;4375472;28;657909;-76
2022/01/06 06:17:47;;;;;;;5.10;2.67;;;1.90;99.90;;;;;;4373577;28;657751;-78
2022/01/06 06:20:35;;;;;;;9.23;3.30;;;1.80;99.90;;;;;;4359634;28;657456;-77
2022/01/06 06:23:25;;;;;;;8.27;2.73;;;1.90;99.90;;;;;;4325070;28;658113;-78
2022/01/06 06:26:12;;;;;;;7.73;2.73;;;1.90;99.90;;;;;;4333465;28;658404;-77
2022/01/06 06:29:00;;;;;;;10.63;3.40;;;1.90;99.90;;;;;;4387279;28;657809;-78
2022/01/06 06:31:48;;;;;;;9.33;2.97;;;1.90;99.90;;;;;;4356170;28;659946;-76
2022/01/06 06:34:37;;;;;;;6.30;2.03;;;1.90;99.90;;;;;;4360204;28;657953;-76
2022/01/06 06:37:25;;;;;;;9.43;3.10;;;1.90;99.90;;;;;;4382918;28;657185;-77
2022/01/06 06:40:15;;;;;;;7.40;2.77;;;1.90;99.90;;;;;;4366615;28;658143;-77
2022/01/06 06:43:04;;;;;;;7.63;2.70;;;1.90;99.90;;;;;;4340324;28;658167;-78
2022/01/06 06:45:53;;;;;;;6.83;2.83;;;1.90;99.90;;;;;;4323310;28;658594;-76
2022/01/06 06:48:42;;;;;;;13.63;3.20;;;1.80;99.90;;;;;;4369462;28;657930;-78
2022/01/06 06:51:35;;;;;;;7.05;2.80;;;1.80;99.90;;;;;;4336910;28;659130;-79
2022/01/06 06:54:26;;;;;;;7.37;2.60;;;1.80;99.90;;;;;;4332635;28;657580;-77
2022/01/06 06:57:16;;;;;;;8.57;3.47;;;1.90;99.90;;;;;;4344465;28;657791;-77
2022/01/06 07:00:06;;;;;;;11.43;3.03;;;1.90;99.90;;;;;;4368246;28;658460;-77
2022/01/06 07:02:57;;;;;;;9.40;3.03;;;1.80;99.90;;;;;;4341573;28;659402;-77
2022/01/06 07:05:45;;;;;;;14.53;3.67;;;1.80;99.90;;;;;;4383689;28;657924;-76
2022/01/06 07:09:28;;;;;;;13.80;3.13;;;1.80;99.90;;;;;;4385849;28;659867;-73
2022/01/06 07:12:17;;;;;;;9.40;3.37;;;1.80;99.90;;;;;;4350615;28;658166;-78
2022/01/06 07:15:09;;;;;;;10.60;4.40;;;1.80;99.90;;;;;;4351792;28;658549;-76
2022/01/06 07:17:57;;;;;;;12.53;3.70;;;1.80;99.90;;;;;;4357803;28;659097;-76
2022/01/06 07:20:45;;;;;;;8.43;3.20;;;1.80;99.90;;;;;;4373621;28;658037;-75
2022/01/06 07:23:32;;;;;;;10.17;3.67;;;1.90;99.90;;;;;;4336199;28;659209;-76
2022/01/06 07:26:20;;;;;;;9.10;3.83;;;1.90;99.90;;;;;;4342841;28;658639;-79
2022/01/06 07:29:10;;;;;;;9.33;3.37;;;1.90;99.90;;;;;;4314262;28;658258;-78
2022/01/06 07:31:58;;;;;;;9.40;4.33;;;1.90;99.90;;;;;;4360796;28;657942;-75
2022/01/06 07:34:45;;;;;;;11.87;3.23;;;1.90;99.90;;;;;;4329071;28;657827;-79
2022/01/06 07:37:33;;;;;;;8.57;3.17;;;1.90;99.90;;;;;;4299106;28;658697;-78
2022/01/06 07:40:21;;;;;;;8.57;3.83;;;1.90;99.90;;;;;;4338084;28;657504;-78
2022/01/06 07:43:09;;;;;;;8.38;3.28;;;1.90;99.90;;;;;;4307887;28;658410;-75
2022/01/06 07:45:58;;;;;;;8.77;2.80;;;2.00;99.90;;;;;;4342836;28;657665;-76
2022/01/06 07:48:57;;;;;;;9.37;4.40;;;1.90;99.90;;;;;;4344306;28;657717;-77
2022/01/06 07:51:45;;;;;;;13.03;4.80;;;1.80;99.90;;;;;;4340293;28;657864;-77
2022/01/06 07:54:34;;;;;;;11.03;4.57;;;1.70;99.90;;;;;;4333868;28;659234;-78
2022/01/06 07:57:21;;;;;;;11.30;4.30;;;1.60;99.90;;;;;;4373495;28;659172;-73
2022/01/06 08:00:10;;;;;;;19.00;4.93;;;1.60;99.90;;;;;;4394977;28;658973;-78
2022/01/06 08:02:59;;;;;;;15.03;5.60;;;1.50;99.90;;;;;;4375347;28;659253;-78
2022/01/06 08:05:46;;;;;;;11.77;4.47;;;1.50;99.90;;;;;;4378594;28;659034;-78
2022/01/06 08:08:34;;;;;;;13.30;5.70;;;1.40;99.90;;;;;;4381755;28;659015;-78
2022/01/06 08:11:22;;;;;;;16.25;5.97;;;1.40;99.90;;;;;;4385216;28;658708;-79
2022/01/06 08:14:09;;;;;;;11.53;4.80;;;1.40;99.90;;;;;;4403953;28;659261;-80
2022/01/06 08:16:57;;;;;;;10.70;5.03;;;1.40;99.90;;;;;;4381572;28;659212;-80
2022/01/06 08:19:47;;;;;;;11.53;5.17;;;1.40;99.90;;;;;;4403443;28;658406;-78
2022/01/06 08:22:35;;;;;;;11.93;5.00;;;1.40;99.90;;;;;;4380116;28;658631;-79
2022/01/06 08:25:22;;;;;;;13.23;5.50;;;1.40;99.90;;;;;;4376053;28;659280;-77
2022/01/06 08:28:11;;;;;;;16.30;6.03;;;1.50;99.90;;;;;;4392399;28;658923;-78
2022/01/06 08:30:58;;;;;;;17.17;6.83;;;1.50;99.90;;;;;;4391190;28;659474;-79
2022/01/06 08:33:46;;;;;;;14.00;5.63;;;1.60;99.90;;;;;;4373408;28;658651;-79
2022/01/06 08:36:35;;;;;;;16.67;6.57;;;1.60;99.90;;;;;;4399398;28;659383;-79
2022/01/06 08:39:22;;;;;;;11.47;5.30;;;1.70;99.90;;;;;;4383917;28;659524;-77
2022/01/06 08:42:12;;;;;;;13.73;5.10;;;1.80;99.90;;;;;;4397550;28;658265;-77
2022/01/06 08:44:59;;;;;;;13.67;5.37;;;1.80;99.90;;;;;;4399000;28;659169;-76
2022/01/06 08:47:47;;;;;;;8.53;4.53;;;1.80;99.90;;;;;;4384669;28;659305;-76
2022/01/06 08:50:35;;;;;;;10.90;5.50;;;1.90;99.90;;;;;;4399296;28;657871;-73
2022/01/06 08:53:24;;;;;;;17.00;5.50;;;1.80;99.90;;;;;;4378965;28;659620;-76
2022/01/06 08:56:12;;;;;;;12.17;5.70;;;1.80;99.90;;;;;;4370045;28;658876;-77
2022/01/06 08:58:59;;;;;;;12.30;4.97;;;1.90;99.90;;;;;;4396260;28;659221;-76
2022/01/06 09:01:47;;;;;;;11.77;4.70;;;1.90;99.90;;;;;;4371979;28;659213;-78
2022/01/06 09:04:34;;;;;;;16.03;5.20;;;2.00;99.90;;;;;;4380270;28;658566;-75
2022/01/06 09:07:22;;;;;;;9.97;4.60;;;2.10;99.90;;;;;;4362279;28;659047;-71
2022/01/06 09:10:11;;;;;;;10.05;3.38;;;2.10;99.90;;;;;;4389781;28;657119;-77
2022/01/06 09:12:59;;;;;;;15.00;5.60;;;2.10;99.90;;;;;;4365792;28;659129;-76
2022/01/06 09:15:46;;;;;;;12.73;4.73;;;2.20;99.90;;;;;;4360756;28;658820;-74
2022/01/06 09:18:34;;;;;;;10.93;4.73;;;2.30;99.90;;;;;;4387841;28;658413;-78
2022/01/06 09:21:24;;;;;;;14.50;4.70;;;2.50;99.90;;;;;;4377361;28;658670;-76
2022/01/06 09:24:11;;;;;;;10.97;4.80;;;2.60;99.90;;;;;;4387614;28;658465;-77
2022/01/06 09:27:00;;;;;;;11.33;3.97;;;2.60;99.90;;;;;;4403766;28;659239;-77
2022/01/06 09:29:48;;;;;;;9.63;4.23;;;2.60;99.90;;;;;;4390005;28;658979;-77
2022/01/06 09:32:36;;;;;;;16.77;5.83;;;2.50;99.90;;;;;;4384759;28;657929;-76
2022/01/06 09:35:23;;;;;;;14.90;4.77;;;2.50;99.90;;;;;;4414317;28;660328;-79
2022/01/06 09:38:11;;;;;;;10.47;3.80;;;2.50;99.90;;;;;;4388875;28;659051;-75
2022/01/06 09:41:00;;;;;;;11.93;4.47;;;2.50;99.90;;;;;;4414317;28;660271;-76
2022/01/06 09:43:49;;;;;;;10.77;3.77;;;2.50;99.90;;;;;;4377102;28;659428;-75
2022/01/06 09:46:36;;;;;;;10.43;5.10;;;2.50;99.90;;;;;;4374423;28;659010;-77
2022/01/06 09:49:24;;;;;;;16.43;6.10;;;2.50;99.90;;;;;;4393160;28;658747;-75
2022/01/06 09:52:12;;;;;;;11.03;5.80;;;2.50;99.90;;;;;;4369788;28;658836;-74
2022/01/06 09:55:02;;;;;;;11.73;6.13;;;2.50;99.90;;;;;;4393338;28;659684;-75
2022/01/06 09:57:56;;;;;;;15.20;5.60;;;2.50;99.90;;;;;;4367222;28;658628;-75
2022/01/06 10:00:46;;;;;;;11.37;5.03;;;2.50;99.90;;;;;;4366814;28;658620;-75
2022/01/06 10:03:34;;;;;;;13.17;5.70;;;2.40;99.90;;;;;;4381648;28;658821;-75
2022/01/06 10:06:23;;;;;;;9.60;4.20;;;2.40;99.90;;;;;;4386514;28;658466;-75
2022/01/06 10:09:11;;;;;;;8.00;3.92;;;2.40;99.90;;;;;;4384829;28;658225;-77
2022/01/06 10:11:59;;;;;;;8.70;3.07;;;2.40;99.90;;;;;;4414159;28;657187;-75
2022/01/06 10:14:47;;;;;;;4.83;2.70;;;2.30;99.90;;;;;;4386474;28;657900;-75
2022/01/06 10:17:36;;;;;;;4.32;2.42;;;2.20;99.90;;;;;;4412010;28;658260;-76
2022/01/06 10:20:27;;;;;;;3.70;1.90;;;2.30;99.90;;;;;;4374729;28;658619;-79
2022/01/06 10:23:15;;;;;;;8.47;2.90;;;2.30;99.90;;;;;;4357046;28;657673;-75
2022/01/06 10:26:11;;;;;;;3.87;1.93;;;2.40;99.90;;;;;;4370393;28;658197;-75
2022/01/06 10:28:59;;;;;;;5.83;2.17;;;2.40;99.90;;;;;;4378040;28;657834;-75
2022/01/06 10:31:47;;;;;;;4.93;1.80;;;2.30;99.90;;;;;;4365447;28;657479;-70
2022/01/06 10:34:39;;;;;;;4.03;1.70;;;2.10;99.90;;;;;;4378592;28;657440;-72
2022/01/06 10:37:29;;;;;;;4.73;1.63;;;1.60;99.90;;;;;;4338291;28;658404;-73
2022/01/06 10:40:22;;;;;;;2.80;1.60;;;1.30;99.90;;;;;;4376638;28;657746;-75
2022/01/06 10:43:09;;;;;;;7.30;2.60;;;1.10;99.90;;;;;;4377704;28;657888;-75
2022/01/06 10:46:01;;;;;;;8.77;2.17;;;1.00;99.90;;;;;;4377599;28;657340;-77
2022/01/06 10:48:48;;;;;;;8.03;2.77;;;0.90;99.90;;;;;;4387782;28;658498;-76
2022/01/06 10:51:40;;;;;;;11.10;3.30;;;1.00;99.90;;;;;;4376968;28;657880;-72
2022/01/06 10:54:27;;;;;;;9.57;3.43;;;1.10;99.90;;;;;;4392798;28;660013;-77
2022/01/06 10:57:15;;;;;;;6.80;3.00;;;1.20;99.90;;;;;;4396451;28;657060;-76
2022/01/06 11:00:03;;;;;;;8.77;4.30;;;1.30;99.90;;;;;;4377073;28;657892;-73
2022/01/06 11:02:51;;;;;;;8.90;3.77;;;1.60;99.90;;;;;;4388247;28;657919;-74
2022/01/06 11:05:39;;;;;;;8.70;3.50;;;2.00;99.90;;;;;;4399744;28;657570;-74
2022/01/06 11:08:29;;;;;;;9.30;3.57;;;2.20;99.90;;;;;;4376169;28;657628;-74
2022/01/06 11:11:31;;;;;;;8.47;2.87;;;2.30;99.90;;;;;;4390403;28;658061;-75
2022/01/06 11:14:20;;;;;;;4.63;1.87;;;2.10;99.90;;;;;;4390671;28;658079;-78
2022/01/06 11:17:08;;;;;;;7.47;3.13;;;2.20;99.90;;;;;;4387264;28;658230;-77
2022/01/06 11:19:56;;;;;;;4.72;2.30;;;2.10;99.90;;;;;;4377631;28;658179;-77
2022/01/06 11:22:53;;;;;;;3.72;1.98;;;2.10;99.90;;;;;;4396084;28;657845;-74
2022/01/06 11:25:42;;;;;;;5.77;2.93;;;2.00;99.90;;;;;;4353885;28;658143;-76
2022/01/06 11:28:31;;;;;;;5.27;2.70;;;1.80;99.90;;;;;;4397177;28;657378;-79
2022/01/06 11:31:19;;;;;;;8.80;2.80;;;1.70;99.90;;;;;;4413796;28;658568;-75
2022/01/06 11:34:15;;;;;;;10.77;3.47;;;1.70;99.90;;;;;;4390849;28;657591;-77
2022/01/06 11:37:09;;;;;;;5.27;2.27;;;1.70;99.90;;;;;;4388546;28;658524;-70
2022/01/06 11:40:02;;;;;;;8.03;2.60;;;1.70;99.90;;;;;;4369362;28;657913;-75
2022/01/06 11:42:55;;;;;;;4.93;2.27;;;1.70;99.90;;;;;;4376664;28;657681;-72
2022/01/06 11:45:43;;;;;;;6.15;2.33;;;1.80;99.90;;;;;;4346006;28;658268;-77
2022/01/06 11:48:31;;;;;;;5.67;1.97;;;2.00;99.90;;;;;;4365962;28;657972;-75
2022/01/06 11:51:28;;;;;;;5.63;2.07;;;2.20;99.90;;;;;;4380396;28;658398;-72
2022/01/06 11:54:50;;;;;;;7.07;2.30;;;2.10;99.90;;;;;;4353013;28;657405;-75
2022/01/06 11:57:38;;;;;;;3.73;2.07;;;1.90;99.90;;;;;;4335504;28;657687;-76
2022/01/06 12:00:29;;;;;;;4.90;2.30;;;1.80;99.90;;;;;;4373314;28;657640;-76
2022/01/06 12:03:17;;;;;;;4.47;2.17;;;1.70;99.90;;;;;;4357755;28;658163;-75
2022/01/06 12:06:05;;;;;;;7.30;3.13;;;1.60;99.90;;;;;;4393375;28;657493;-74
2022/01/06 12:08:52;;;;;;;6.70;2.90;;;2.20;99.90;;;;;;4369625;28;659256;-76
2022/01/06 12:11:40;;;;;;;7.13;2.87;;;3.40;99.90;;;;;;4394644;28;657086;-77
2022/01/06 12:14:28;;;;;;;6.27;2.67;;;4.70;99.90;;;;;;4374034;28;659094;-72
2022/01/06 12:17:21;;;;;;;6.60;2.53;;;5.50;94.60;;;;;;4371277;28;657619;-76
2022/01/06 12:20:18;;;;;;;6.13;2.80;;;5.90;95.20;;;;;;4372038;28;658079;-75
2022/01/06 12:23:06;;;;;;;4.93;2.80;;;5.10;99.30;;;;;;4359275;28;658294;-77
2022/01/06 12:25:58;;;;;;;6.20;2.63;;;4.60;99.90;;;;;;4377431;28;657626;-72
2022/01/06 12:28:47;;;;;;;5.83;2.30;;;3.70;99.90;;;;;;4342747;28;657291;-77
2022/01/06 12:31:35;;;;;;;6.80;2.90;;;3.00;99.90;;;;;;4377577;28;657737;-75
2022/01/06 12:34:24;;;;;;;4.77;2.47;;;2.40;99.90;;;;;;4361285;28;658090;-75
2022/01/06 12:37:11;;;;;;;7.20;2.73;;;2.10;99.90;;;;;;4374113;28;658022;-73
2022/01/06 12:40:00;;;;;;;4.73;2.00;;;1.80;99.90;;;;;;4393463;28;658260;-75
2022/01/06 12:42:47;;;;;;;5.73;2.80;;;1.60;99.90;;;;;;4390041;28;658635;-75
2022/01/06 12:45:36;;;;;;;8.63;2.10;;;1.50;99.90;;;;;;4397750;28;657565;-75
2022/01/06 12:48:29;;;;;;;3.93;2.03;;;1.30;99.90;;;;;;4393959;28;659116;-72
2022/01/06 12:51:20;;;;;;;6.00;2.60;;;1.10;99.90;;;;;;4378466;28;658575;-72
2022/01/06 12:54:10;;;;;;;3.90;2.20;;;1.00;99.90;;;;;;4357416;28;658373;-73
2022/01/06 12:57:00;;;;;;;6.10;2.40;;;0.70;99.90;;;;;;4358853;28;657865;-69
2022/01/06 12:59:52;;;;;;;5.13;2.10;;;0.70;99.90;;;;;;4355782;28;658594;-75
2022/01/06 13:02:39;;;;;;;5.17;2.20;;;0.70;99.90;;;;;;4358423;28;657940;-73
2022/01/06 13:05:27;;;;;;;7.83;2.60;;;0.80;99.90;;;;;;4357930;28;657508;-74
2022/01/06 13:08:16;;;;;;;6.47;2.70;;;0.70;99.90;;;;;;4380868;28;657362;-75
2022/01/06 13:11:07;;;;;;;8.20;2.80;;;0.60;99.90;;;;;;4354929;28;657465;-75
2022/01/06 13:13:55;;;;;;;3.83;1.63;;;0.50;99.90;;;;;;4369074;28;657739;-74
2022/01/06 13:16:43;;;;;;;4.17;1.60;;;0.30;99.90;;;;;;4375725;28;658482;-72
2022/01/06 13:19:31;;;;;;;5.18;1.75;;;0.20;99.90;;;;;;4380859;28;657817;-79
2022/01/06 13:22:25;;;;;;;3.57;1.93;;;0.10;99.90;;;;;;4399021;28;657789;-76
2022/01/06 13:25:15;;;;;;;7.67;2.47;;;0.00;99.90;;;;;;4368118;28;657689;-77
2022/01/06 13:28:06;;;;;;;4.90;1.97;;;0.00;99.90;;;;;;4356734;28;658087;-76
2022/01/06 13:30:54;;;;;;;4.37;2.13;;;0.00;99.90;;;;;;4363196;28;657858;-75
2022/01/06 13:33:41;;;;;;;5.00;1.63;;;0.00;99.90;;;;;;4374794;28;657893;-76
2022/01/06 13:36:32;;;;;;;4.27;1.53;;;-0.10;99.90;;;;;;4395299;28;658381;-73
2022/01/06 13:39:20;;;;;;;3.67;1.57;;;-0.10;99.90;;;;;;4379039;28;658450;-75
2022/01/06 13:42:10;;;;;;;2.10;1.33;;;-0.10;99.90;;;;;;4383358;28;659126;-75
2022/01/06 13:45:04;;;;;;;5.47;1.30;;;-0.20;97.60;;;;;;4373668;28;659133;-77
2022/01/06 13:47:56;;;;;;;3.90;1.43;;;-0.30;98.50;;;;;;4347991;28;659091;-74
2022/01/06 13:53:51;;;;;;;2.90;1.10;;;-0.30;97.10;;;;;;4351772;28;658886;-73
2022/01/06 13:56:39;;;;;;;1.70;1.02;;;-0.30;92.90;;;;;;4355277;28;658654;-72
2022/01/06 13:59:28;;;;;;;3.93;1.00;;;-0.40;93.10;;;;;;4365207;28;659332;-75
2022/01/06 14:02:17;;;;;;;3.97;1.20;;;-0.60;94.90;;;;;;4379064;28;658993;-71
2022/01/06 14:05:08;;;;;;;2.63;1.07;;;-0.60;92.40;;;;;;4407465;28;658859;-75
2022/01/06 14:07:56;;;;;;;6.83;1.30;;;-0.70;93.00;;;;;;4358330;28;659167;-76
2022/01/06 14:10:43;;;;;;;3.37;1.10;;;-0.80;95.60;;;;;;4388687;28;659480;-75
2022/01/06 14:13:31;;;;;;;2.83;1.40;;;-0.80;95.20;;;;;;4360650;28;658532;-74
2022/01/06 14:16:20;;;;;;;4.43;1.57;;;-0.70;93.70;;;;;;4378783;28;658769;-76
2022/01/06 14:19:08;;;;;;;8.77;1.60;;;-0.70;98.20;;;;;;4357740;28;659031;-71
2022/01/06 14:21:56;;;;;;;5.40;1.77;;;-0.60;97.60;;;;;;4365143;28;658363;-71
2022/01/06 14:24:43;;;;;;;6.93;1.97;;;-0.60;99.70;;;;;;4378504;28;659235;-76
2022/01/06 14:27:31;;;;;;;7.37;1.70;;;-0.70;99.90;;;;;;4362949;28;658865;-76
2022/01/06 14:30:20;;;;;;;5.47;2.00;;;-0.70;99.90;;;;;;4397859;28;659292;-76
2022/01/06 14:33:10;;;;;;;4.40;1.53;;;-0.70;99.90;;;;;;4379480;28;659056;-76
2022/01/06 14:35:58;;;;;;;20.67;2.47;;;-0.70;99.90;;;;;;4379393;28;659593;-76
2022/01/06 14:38:46;;;;;;;7.55;2.40;;;-0.70;99.90;;;;;;4385184;28;659748;-76
2022/01/06 14:41:33;;;;;;;7.20;1.73;;;-0.70;99.90;;;;;;4400009;28;659674;-76
2022/01/06 14:44:21;;;;;;;4.70;1.87;;;-0.70;99.90;;;;;;4379928;28;658680;-74
2022/01/06 14:47:09;;;;;;;6.63;2.03;;;-0.80;99.90;;;;;;4408591;28;659061;-75